createdAt,value
2017-11-28T00:00:58.759Z,20.12
2017-11-28T00:01:59.132Z,20.17
2017-11-28T00:02:58.813Z,20.04
2017-11-28T00:03:58.842Z,20.17
2017-11-28T00:04:58.877Z,20.10
2017-11-28T00:05:58.907Z,20.10
2017-11-28T00:06:58.950Z,20.13
2017-11-28T00:07:58.968Z,20.10
2017-11-28T00:08:59.299Z,20.04
2017-11-28T00:09:59.042Z,20.15
2017-11-28T00:10:59.062Z,20.13
2017-11-28T00:11:59.090Z,20.08
2017-11-28T00:12:59.126Z,20.08
2017-11-28T00:13:59.156Z,20.02
2017-11-28T00:14:59.182Z,20.10
2017-11-28T00:15:59.515Z,20.13
2017-11-28T00:16:59.250Z,20.08
2017-11-28T00:17:59.280Z,20.08
2017-11-28T00:18:59.306Z,20.12
2017-11-28T00:19:59.335Z,20.12
2017-11-28T00:20:59.378Z,20.16
2017-11-28T00:21:59.397Z,20.12
2017-11-28T00:22:59.778Z,20.07
2017-11-28T00:23:59.465Z,20.15
2017-11-28T00:24:59.486Z,20.12
2017-11-28T00:25:59.518Z,20.10
2017-11-28T00:26:59.548Z,20.00
2017-11-28T00:27:59.582Z,20.15
2017-11-28T00:28:59.612Z,20.15
2017-11-28T00:29:59.991Z,20.19
2017-11-28T00:30:59.673Z,20.15
2017-11-28T00:31:59.705Z,20.10
2017-11-28T00:32:59.736Z,20.15
2017-11-28T00:33:59.760Z,20.16
2017-11-28T00:34:59.791Z,20.19
2017-11-28T00:36:00.046Z,20.15
2017-11-28T00:37:00.157Z,20.16
2017-11-28T00:37:59.888Z,20.15
2017-11-28T00:38:59.913Z,20.15
2017-11-28T00:39:59.945Z,20.13
2017-11-28T00:40:59.983Z,20.15
2017-11-28T00:42:00.010Z,20.15
2017-11-28T00:43:00.035Z,20.19
2017-11-28T00:44:00.424Z,20.16
2017-11-28T00:45:00.096Z,20.16
2017-11-28T00:46:00.129Z,20.15
2017-11-28T00:47:00.172Z,20.16
2017-11-28T00:48:00.189Z,20.17
2017-11-28T00:49:00.217Z,20.16
2017-11-28T00:50:00.255Z,20.17
2017-11-28T00:51:00.633Z,20.19
2017-11-28T00:52:00.319Z,20.15
2017-11-28T00:53:00.344Z,20.17
2017-11-28T00:54:00.374Z,20.17
2017-11-28T00:55:00.405Z,20.13
2017-11-28T00:56:00.466Z,20.13
2017-11-28T00:57:00.476Z,20.17
2017-11-28T00:58:00.845Z,20.16
2017-11-28T00:59:00.529Z,20.19
2017-11-28T01:00:00.561Z,20.17
2017-11-28T01:01:00.584Z,20.16
2017-11-28T01:02:00.635Z,20.17
2017-11-28T01:03:00.656Z,20.19
2017-11-28T01:04:01.059Z,20.22
2017-11-28T01:05:00.709Z,20.17
2017-11-28T01:06:00.865Z,20.13
2017-11-28T01:07:00.778Z,20.15
2017-11-28T01:08:00.800Z,20.19
2017-11-28T01:09:00.831Z,20.12
2017-11-28T01:10:01.213Z,20.15
2017-11-28T01:11:00.909Z,20.17
2017-11-28T01:12:00.927Z,20.19
2017-11-28T01:13:00.957Z,20.15
2017-11-28T01:14:00.984Z,20.19
2017-11-28T01:15:01.059Z,20.17
2017-11-28T01:16:01.408Z,20.16
2017-11-28T01:17:01.077Z,20.19
2017-11-28T01:18:01.108Z,20.17
2017-11-28T01:19:01.139Z,20.17
2017-11-28T01:20:01.180Z,20.17
2017-11-28T01:21:01.208Z,20.17
2017-11-28T01:22:01.250Z,20.15
2017-11-28T01:24:01.603Z,20.13
2017-11-28T01:25:01.323Z,20.16
2017-11-28T01:26:01.357Z,20.13
2017-11-28T01:27:01.392Z,20.15
2017-11-28T01:28:01.465Z,20.20
2017-11-28T01:29:01.449Z,20.16
2017-11-28T01:30:01.932Z,20.13
2017-11-28T01:31:01.546Z,20.17
2017-11-28T01:32:01.544Z,20.12
2017-11-28T01:33:01.583Z,20.19
2017-11-28T01:35:01.636Z,20.16
2017-11-28T01:36:01.716Z,20.15
2017-11-28T01:37:02.046Z,20.17
2017-11-28T01:38:01.731Z,20.15
2017-11-28T01:39:01.756Z,20.27
2017-11-28T01:40:01.784Z,20.19
2017-11-28T01:41:01.818Z,20.10
2017-11-28T01:42:01.852Z,20.17
2017-11-28T01:43:01.878Z,20.10
2017-11-28T01:44:02.258Z,20.16
2017-11-28T01:45:01.946Z,20.15
2017-11-28T01:46:01.978Z,20.13
2017-11-28T01:47:02.009Z,20.13
2017-11-28T01:48:02.037Z,20.16
2017-11-28T01:49:02.062Z,20.17
2017-11-28T01:50:02.089Z,20.13
2017-11-28T01:51:02.474Z,20.16
2017-11-28T01:52:02.151Z,20.20
2017-11-28T01:53:02.211Z,20.16
2017-11-28T01:54:02.234Z,20.13
2017-11-28T01:55:02.245Z,20.16
2017-11-28T01:56:02.279Z,20.15
2017-11-28T01:57:02.312Z,20.15
2017-11-28T01:58:02.689Z,20.15
2017-11-28T01:59:02.368Z,20.10
2017-11-28T02:00:02.614Z,20.16
2017-11-28T02:01:02.464Z,20.17
2017-11-28T02:02:02.464Z,20.19
2017-11-28T02:03:02.492Z,20.13
2017-11-28T02:04:02.528Z,20.16
2017-11-28T02:05:02.903Z,20.19
2017-11-28T02:06:02.638Z,20.13
2017-11-28T02:07:02.616Z,20.26
2017-11-28T02:08:02.645Z,20.13
2017-11-28T02:09:02.677Z,20.20
2017-11-28T02:10:02.734Z,20.19
2017-11-28T02:11:02.735Z,20.17
2017-11-28T02:12:03.117Z,20.16
2017-11-28T02:13:02.856Z,20.15
2017-11-28T02:14:02.829Z,20.19
2017-11-28T02:15:02.860Z,20.13
2017-11-28T02:16:03.012Z,20.19
2017-11-28T02:18:02.954Z,20.16
2017-11-28T02:19:02.983Z,20.17
2017-11-28T02:20:03.016Z,20.13
2017-11-28T02:21:03.046Z,20.19
2017-11-28T02:22:03.086Z,20.08
2017-11-28T02:23:03.106Z,20.19
2017-11-28T02:24:03.144Z,20.15
2017-11-28T02:25:03.517Z,20.15
2017-11-28T02:26:03.195Z,20.19
2017-11-28T02:27:03.228Z,20.15
2017-11-28T02:28:03.272Z,20.17
2017-11-28T02:29:03.311Z,20.15
2017-11-28T02:30:03.325Z,20.16
2017-11-28T02:31:03.702Z,20.19
2017-11-28T02:32:03.435Z,20.10
2017-11-28T02:33:03.412Z,20.16
2017-11-28T02:34:03.450Z,20.17
2017-11-28T02:35:03.478Z,20.20
2017-11-28T02:36:03.521Z,20.16
2017-11-28T02:37:03.838Z,20.19
2017-11-28T02:38:03.585Z,20.20
2017-11-28T02:39:03.604Z,20.22
2017-11-28T02:40:03.642Z,20.10
2017-11-28T02:41:03.663Z,20.12
2017-11-28T02:42:03.697Z,20.16
2017-11-28T02:43:04.022Z,20.15
2017-11-28T02:44:03.753Z,20.17
2017-11-28T02:45:03.782Z,20.16
2017-11-28T02:46:03.842Z,20.15
2017-11-28T02:47:03.843Z,20.22
2017-11-28T02:48:03.934Z,20.17
2017-11-28T02:49:03.920Z,20.17
2017-11-28T02:50:04.237Z,20.19
2017-11-28T02:51:03.968Z,20.15
2017-11-28T02:52:04.022Z,20.16
2017-11-28T02:53:04.038Z,20.22
2017-11-28T02:54:04.057Z,20.13
2017-11-28T02:55:04.097Z,20.15
2017-11-28T02:56:04.118Z,20.15
2017-11-28T02:57:04.504Z,20.12
2017-11-28T02:58:04.235Z,20.15
2017-11-28T02:59:04.213Z,20.15
2017-11-28T03:00:04.245Z,20.19
2017-11-28T03:01:04.282Z,20.16
2017-11-28T03:02:04.305Z,20.15
2017-11-28T03:03:04.337Z,20.16
2017-11-28T03:04:04.667Z,20.22
2017-11-28T03:05:04.397Z,20.15
2017-11-28T03:06:04.426Z,20.13
2017-11-28T03:07:04.460Z,20.16
2017-11-28T03:08:04.491Z,20.17
2017-11-28T03:09:04.522Z,20.22
2017-11-28T03:11:04.626Z,20.27
2017-11-28T03:12:04.952Z,20.27
2017-11-28T03:13:04.711Z,20.20
2017-11-28T03:14:04.713Z,20.26
2017-11-28T03:15:04.727Z,20.20
2017-11-28T03:16:04.741Z,20.16
2017-11-28T03:17:04.766Z,20.25
2017-11-28T03:18:04.849Z,20.25
2017-11-28T03:19:05.182Z,20.16
2017-11-28T03:20:04.862Z,20.19
2017-11-28T03:21:04.888Z,20.30
2017-11-28T03:22:04.973Z,20.25
2017-11-28T03:23:04.991Z,20.25
2017-11-28T03:24:04.990Z,20.20
2017-11-28T03:25:05.012Z,20.26
2017-11-28T03:26:05.397Z,20.19
2017-11-28T03:27:05.073Z,20.23
2017-11-28T03:28:05.107Z,20.20
2017-11-28T03:29:05.149Z,20.23
2017-11-28T03:30:05.167Z,20.27
2017-11-28T03:31:05.233Z,20.31
2017-11-28T03:32:05.228Z,20.23
2017-11-28T03:33:05.702Z,20.19
2017-11-28T03:34:05.290Z,20.26
2017-11-28T03:35:05.317Z,20.27
2017-11-28T03:36:05.351Z,20.19
2017-11-28T03:37:05.381Z,20.22
2017-11-28T03:38:05.412Z,20.22
2017-11-28T03:39:05.440Z,20.25
2017-11-28T03:40:05.774Z,20.22
2017-11-28T03:41:05.505Z,20.19
2017-11-28T03:42:05.533Z,20.22
2017-11-28T03:43:05.568Z,20.20
2017-11-28T03:44:05.602Z,20.20
2017-11-28T03:45:05.628Z,20.20
2017-11-28T03:46:05.658Z,20.25
2017-11-28T03:47:06.040Z,20.17
2017-11-28T03:48:05.722Z,20.20
2017-11-28T03:49:05.749Z,20.26
2017-11-28T03:50:05.785Z,20.20
2017-11-28T03:51:05.813Z,20.22
2017-11-28T03:52:05.890Z,20.16
2017-11-28T03:53:05.888Z,20.25
2017-11-28T03:54:06.259Z,20.13
2017-11-28T03:55:05.941Z,20.26
2017-11-28T03:56:06.019Z,20.17
2017-11-28T03:57:06.025Z,20.26
2017-11-28T03:58:06.038Z,20.23
2017-11-28T03:59:06.069Z,20.20
2017-11-28T04:00:06.093Z,20.20
2017-11-28T04:01:07.028Z,20.20
2017-11-28T04:02:06.161Z,20.23
2017-11-28T04:03:06.180Z,20.19
2017-11-28T04:04:06.336Z,20.25
2017-11-28T04:05:06.241Z,20.23
2017-11-28T04:06:06.347Z,20.23
2017-11-28T04:07:06.380Z,20.23
2017-11-28T04:08:06.724Z,20.20
2017-11-28T04:09:06.537Z,20.19
2017-11-28T04:10:06.409Z,20.19
2017-11-28T04:11:06.425Z,20.13
2017-11-28T04:12:06.459Z,20.20
2017-11-28T04:13:06.527Z,20.16
2017-11-28T04:14:06.521Z,20.13
2017-11-28T04:15:06.901Z,20.19
2017-11-28T04:16:06.593Z,20.15
2017-11-28T04:17:06.618Z,20.15
2017-11-28T04:18:06.651Z,20.19
2017-11-28T04:19:06.722Z,20.19
2017-11-28T04:20:06.712Z,20.16
2017-11-28T04:21:06.820Z,20.22
2017-11-28T04:22:07.074Z,20.13
2017-11-28T04:23:06.800Z,20.22
2017-11-28T04:24:06.832Z,20.15
2017-11-28T04:25:06.864Z,20.16
2017-11-28T04:26:06.948Z,20.16
2017-11-28T04:27:06.924Z,20.17
2017-11-28T04:28:06.957Z,20.13
2017-11-28T04:29:07.285Z,20.15
2017-11-28T04:30:07.021Z,20.19
2017-11-28T04:31:07.081Z,20.15
2017-11-28T04:32:07.080Z,20.16
2017-11-28T04:33:07.116Z,20.19
2017-11-28T04:34:07.138Z,20.13
2017-11-28T04:35:07.185Z,20.16
2017-11-28T04:36:07.548Z,20.12
2017-11-28T04:37:07.228Z,20.15
2017-11-28T04:38:07.261Z,20.22
2017-11-28T04:39:07.311Z,20.17
2017-11-28T04:40:07.325Z,20.22
2017-11-28T04:41:07.352Z,20.16
2017-11-28T04:42:07.382Z,20.16
2017-11-28T04:43:07.765Z,20.15
2017-11-28T04:44:07.456Z,20.17
2017-11-28T04:45:07.489Z,20.15
2017-11-28T04:46:07.513Z,20.15
2017-11-28T04:47:07.536Z,20.16
2017-11-28T04:48:07.576Z,20.15
2017-11-28T04:49:07.629Z,20.13
2017-11-28T04:50:07.932Z,20.15
2017-11-28T04:51:07.664Z,20.12
2017-11-28T04:53:07.722Z,20.15
2017-11-28T04:54:07.751Z,20.17
2017-11-28T04:55:07.780Z,20.16
2017-11-28T04:56:07.814Z,20.20
2017-11-28T04:57:08.196Z,20.15
2017-11-28T04:58:07.874Z,20.16
2017-11-28T04:59:07.906Z,20.15
2017-11-28T05:00:07.943Z,20.16
2017-11-28T05:01:07.963Z,20.19
2017-11-28T05:02:08.008Z,20.16
2017-11-28T05:03:08.029Z,20.17
2017-11-28T05:04:08.408Z,20.17
2017-11-28T05:05:08.094Z,20.16
2017-11-28T05:06:08.120Z,20.19
2017-11-28T05:07:08.149Z,20.15
2017-11-28T05:08:08.181Z,20.13
2017-11-28T05:09:08.209Z,20.15
2017-11-28T05:10:08.596Z,20.16
2017-11-28T05:11:08.275Z,20.13
2017-11-28T05:12:08.380Z,20.20
2017-11-28T05:13:08.358Z,20.16
2017-11-28T05:14:08.365Z,20.13
2017-11-28T05:15:08.393Z,20.16
2017-11-28T05:16:08.773Z,20.17
2017-11-28T05:17:08.466Z,20.12
2017-11-28T05:18:08.492Z,20.13
2017-11-28T05:19:08.522Z,20.16
2017-11-28T05:20:08.546Z,20.19
2017-11-28T05:21:08.588Z,20.20
2017-11-28T05:22:08.960Z,20.15
2017-11-28T05:23:08.637Z,20.13
2017-11-28T05:24:08.668Z,20.12
2017-11-28T05:25:08.700Z,20.13
2017-11-28T05:26:08.729Z,20.19
2017-11-28T05:27:08.761Z,20.20
2017-11-28T05:28:08.797Z,20.16
2017-11-28T05:30:09.210Z,20.16
2017-11-28T05:31:08.893Z,20.16
2017-11-28T05:33:08.947Z,20.16
2017-11-28T05:35:09.005Z,20.17
2017-11-28T05:36:09.393Z,20.16
2017-11-28T05:37:09.068Z,20.12
2017-11-28T05:38:09.096Z,20.12
2017-11-28T05:39:09.132Z,20.13
2017-11-28T05:40:09.160Z,20.19
2017-11-28T05:41:09.190Z,20.17
2017-11-28T05:42:09.226Z,20.23
2017-11-28T05:43:09.600Z,20.12
2017-11-28T05:44:09.284Z,20.16
2017-11-28T05:45:09.314Z,20.13
2017-11-28T05:46:09.412Z,20.17
2017-11-28T05:47:09.402Z,20.16
2017-11-28T05:48:09.403Z,20.20
2017-11-28T05:49:09.440Z,20.26
2017-11-28T05:50:09.816Z,20.17
2017-11-28T05:51:09.494Z,20.19
2017-11-28T05:52:09.528Z,20.13
2017-11-28T05:53:09.556Z,20.17
2017-11-28T05:54:09.589Z,20.19
2017-11-28T05:55:09.620Z,20.13
2017-11-28T05:56:09.650Z,20.20
2017-11-28T05:57:09.985Z,20.19
2017-11-28T05:58:09.717Z,20.15
2017-11-28T05:59:09.737Z,20.13
2017-11-28T06:00:09.772Z,20.16
2017-11-28T06:01:09.906Z,20.17
2017-11-28T06:02:09.915Z,20.15
2017-11-28T06:03:09.935Z,20.15
2017-11-28T06:04:10.268Z,20.15
2017-11-28T06:05:10.018Z,20.19
2017-11-28T06:06:10.033Z,20.17
2017-11-28T06:07:10.100Z,20.17
2017-11-28T06:08:10.095Z,20.16
2017-11-28T06:09:10.064Z,20.17
2017-11-28T06:10:10.151Z,20.17
2017-11-28T06:11:10.482Z,20.17
2017-11-28T06:13:10.164Z,20.20
2017-11-28T06:14:10.203Z,20.17
2017-11-28T06:15:10.278Z,20.10
2017-11-28T06:16:10.268Z,20.20
2017-11-28T06:17:10.296Z,20.17
2017-11-28T06:18:10.673Z,20.16
2017-11-28T06:19:10.362Z,20.15
2017-11-28T06:20:10.381Z,20.15
2017-11-28T06:21:10.413Z,20.19
2017-11-28T06:22:10.451Z,20.13
2017-11-28T06:23:10.484Z,20.15
2017-11-28T06:24:10.506Z,20.17
2017-11-28T06:25:10.888Z,20.16
2017-11-28T06:26:10.566Z,20.16
2017-11-28T06:27:10.596Z,20.16
2017-11-28T06:28:10.629Z,20.12
2017-11-28T06:29:10.662Z,20.15
2017-11-28T06:30:10.739Z,20.17
2017-11-28T06:31:10.727Z,20.13
2017-11-28T06:32:11.144Z,20.16
2017-11-28T06:33:10.783Z,20.16
2017-11-28T06:34:10.866Z,20.15
2017-11-28T06:35:10.853Z,20.13
2017-11-28T06:36:10.869Z,20.19
2017-11-28T06:37:10.900Z,20.10
2017-11-28T06:38:10.983Z,20.12
2017-11-28T06:39:11.319Z,20.17
2017-11-28T06:40:11.001Z,20.12
2017-11-28T06:41:11.046Z,20.13
2017-11-28T06:42:11.057Z,20.13
2017-11-28T06:43:11.139Z,20.10
2017-11-28T06:44:11.116Z,20.15
2017-11-28T06:45:11.145Z,20.15
2017-11-28T06:46:11.573Z,20.10
2017-11-28T06:47:11.215Z,20.15
2017-11-28T06:48:11.319Z,20.15
2017-11-28T06:49:11.416Z,20.13
2017-11-28T06:50:11.297Z,20.15
2017-11-28T06:51:11.328Z,20.12
2017-11-28T06:52:11.364Z,20.15
2017-11-28T06:53:11.744Z,20.15
2017-11-28T06:54:11.454Z,20.02
2017-11-28T06:55:11.452Z,20.15
2017-11-28T06:56:11.490Z,20.01
2017-11-28T06:57:11.531Z,20.00
2017-11-28T06:58:11.545Z,20.10
2017-11-28T06:59:11.930Z,20.10
2017-11-28T07:00:12.359Z,20.08
2017-11-28T07:01:11.702Z,20.16
2017-11-28T07:02:11.669Z,20.10
2017-11-28T07:03:11.694Z,20.04
2017-11-28T07:04:11.723Z,20.12
2017-11-28T07:05:12.104Z,20.12
2017-11-28T07:06:11.804Z,20.17
2017-11-28T07:07:11.815Z,20.10
2017-11-28T07:08:11.846Z,20.13
2017-11-28T07:09:11.892Z,20.12
2017-11-28T07:10:11.910Z,20.16
2017-11-28T07:11:12.292Z,20.08
2017-11-28T07:12:11.991Z,20.16
2017-11-28T07:13:12.014Z,20.10
2017-11-28T07:14:12.095Z,20.08
2017-11-28T07:15:12.069Z,20.15
2017-11-28T07:16:12.094Z,20.15
2017-11-28T07:17:12.474Z,20.08
2017-11-28T07:18:12.165Z,20.15
2017-11-28T07:19:12.188Z,20.15
2017-11-28T07:20:12.217Z,20.10
2017-11-28T07:21:12.246Z,20.15
2017-11-28T07:22:12.273Z,20.08
2017-11-28T07:23:12.343Z,20.13
2017-11-28T07:24:12.640Z,20.07
2017-11-28T07:25:12.367Z,20.12
2017-11-28T07:26:12.602Z,20.08
2017-11-28T07:27:12.427Z,20.16
2017-11-28T07:28:12.459Z,20.04
2017-11-28T07:29:12.504Z,20.08
2017-11-28T07:30:12.519Z,20.16
2017-11-28T07:31:12.897Z,20.16
2017-11-28T07:32:12.582Z,20.08
2017-11-28T07:33:12.611Z,20.12
2017-11-28T07:34:12.640Z,20.15
2017-11-28T07:35:12.675Z,20.15
2017-11-28T07:36:12.699Z,20.13
2017-11-28T07:37:12.780Z,20.15
2017-11-28T07:38:13.118Z,20.08
2017-11-28T07:39:12.795Z,20.16
2017-11-28T07:40:12.820Z,20.15
2017-11-28T07:41:12.856Z,20.15
2017-11-28T07:42:12.895Z,20.12
2017-11-28T07:43:12.918Z,20.13
2017-11-28T07:44:12.945Z,20.16
2017-11-28T07:45:13.286Z,20.13
2017-11-28T07:46:13.013Z,20.17
2017-11-28T07:47:13.047Z,20.13
2017-11-28T07:48:13.069Z,20.16
2017-11-28T07:49:13.105Z,20.12
2017-11-28T07:50:13.137Z,20.16
2017-11-28T07:51:13.160Z,20.17
2017-11-28T07:52:13.567Z,20.19
2017-11-28T07:53:13.222Z,20.16
2017-11-28T07:54:13.248Z,20.16
2017-11-28T07:55:13.281Z,20.16
2017-11-28T07:56:13.317Z,20.15
2017-11-28T07:57:13.342Z,20.16
2017-11-28T07:58:13.372Z,20.12
2017-11-28T07:59:13.771Z,20.17
2017-11-28T08:00:13.437Z,20.10
2017-11-28T08:01:13.474Z,20.13
2017-11-28T08:02:13.517Z,20.12
2017-11-28T08:03:13.528Z,20.19
2017-11-28T08:04:13.558Z,20.15
2017-11-28T08:05:13.592Z,20.15
2017-11-28T08:06:13.965Z,20.16
2017-11-28T08:07:13.646Z,20.13
2017-11-28T08:08:13.681Z,20.15
2017-11-28T08:09:13.707Z,20.13
2017-11-28T08:10:13.745Z,20.13
2017-11-28T08:11:13.776Z,20.12
2017-11-28T08:12:14.751Z,20.10
2017-11-28T08:13:14.181Z,20.19
2017-11-28T08:14:13.869Z,20.17
2017-11-28T08:15:13.903Z,20.08
2017-11-28T08:16:13.927Z,20.13
2017-11-28T08:17:13.965Z,20.17
2017-11-28T08:18:13.994Z,20.17
2017-11-28T08:19:14.017Z,20.15
2017-11-28T08:20:14.395Z,20.15
2017-11-28T08:21:14.076Z,20.19
2017-11-28T08:22:14.118Z,20.10
2017-11-28T08:23:14.140Z,20.15
2017-11-28T08:24:14.164Z,20.19
2017-11-28T08:25:14.199Z,20.13
2017-11-28T08:26:14.463Z,20.17
2017-11-28T08:27:14.609Z,20.19
2017-11-28T08:28:14.289Z,20.19
2017-11-28T08:29:14.378Z,20.15
2017-11-28T08:30:14.362Z,20.16
2017-11-28T08:31:14.379Z,20.19
2017-11-28T08:32:14.414Z,20.16
2017-11-28T08:34:14.477Z,20.16
2017-11-28T08:35:14.853Z,20.19
2017-11-28T08:36:14.540Z,20.16
2017-11-28T08:37:14.566Z,20.17
2017-11-28T08:38:14.602Z,20.17
2017-11-28T08:39:14.674Z,20.10
2017-11-28T08:40:14.664Z,20.17
2017-11-28T08:41:14.687Z,20.15
2017-11-28T08:42:15.072Z,20.12
2017-11-28T08:43:14.751Z,20.20
2017-11-28T08:44:14.779Z,20.17
2017-11-28T08:45:14.813Z,20.17
2017-11-28T08:46:14.840Z,20.20
2017-11-28T08:47:14.873Z,20.27
2017-11-28T08:48:14.909Z,20.22
2017-11-28T08:49:15.285Z,20.17
2017-11-28T08:50:14.973Z,20.13
2017-11-28T08:51:14.994Z,20.20
2017-11-28T08:52:15.036Z,20.13
2017-11-28T08:53:15.052Z,20.20
2017-11-28T08:54:15.123Z,20.22
2017-11-28T08:55:15.116Z,20.26
2017-11-28T08:56:15.497Z,20.23
2017-11-28T08:57:15.186Z,20.22
2017-11-28T08:58:15.205Z,20.26
2017-11-28T08:59:15.242Z,20.23
2017-11-28T09:00:15.265Z,20.22
2017-11-28T09:01:15.303Z,20.19
2017-11-28T09:02:15.329Z,20.20
2017-11-28T09:03:15.721Z,20.27
2017-11-28T09:04:15.442Z,20.27
2017-11-28T09:05:15.426Z,20.22
2017-11-28T09:06:15.457Z,20.20
2017-11-28T09:07:15.479Z,20.33
2017-11-28T09:08:15.508Z,20.22
2017-11-28T09:09:15.545Z,20.22
2017-11-28T09:10:15.886Z,20.22
2017-11-28T09:11:15.601Z,20.23
2017-11-28T09:12:15.634Z,20.26
2017-11-28T09:13:15.662Z,20.25
2017-11-28T09:14:15.754Z,20.26
2017-11-28T09:15:15.725Z,20.27
2017-11-28T09:16:15.752Z,20.33
2017-11-28T09:17:16.137Z,20.25
2017-11-28T09:18:15.821Z,20.27
2017-11-28T09:19:15.845Z,20.22
2017-11-28T09:20:15.878Z,20.30
2017-11-28T09:21:15.905Z,20.23
2017-11-28T09:22:15.940Z,20.34
2017-11-28T09:23:15.971Z,20.27
2017-11-28T09:24:16.407Z,20.22
2017-11-28T09:25:16.043Z,20.27
2017-11-28T09:26:16.068Z,20.30
2017-11-28T09:27:16.092Z,20.31
2017-11-28T09:28:16.121Z,20.33
2017-11-28T09:29:16.157Z,20.33
2017-11-28T09:30:16.200Z,20.27
2017-11-28T09:31:16.574Z,20.30
2017-11-28T09:32:16.250Z,20.30
2017-11-28T09:33:16.276Z,20.33
2017-11-28T09:34:16.320Z,20.33
2017-11-28T09:35:16.359Z,20.33
2017-11-28T09:36:16.388Z,20.35
2017-11-28T09:37:16.402Z,20.37
2017-11-28T09:38:16.780Z,20.30
2017-11-28T09:39:16.462Z,20.31
2017-11-28T09:40:16.490Z,20.38
2017-11-28T09:41:16.529Z,20.30
2017-11-28T09:42:16.551Z,20.27
2017-11-28T09:43:16.584Z,20.31
2017-11-28T09:44:16.618Z,20.30
2017-11-28T09:45:17.044Z,20.33
2017-11-28T09:46:16.678Z,20.33
2017-11-28T09:47:16.709Z,20.34
2017-11-28T09:48:16.744Z,20.34
2017-11-28T09:49:16.762Z,20.35
2017-11-28T09:50:16.802Z,20.30
2017-11-28T09:51:16.829Z,20.38
2017-11-28T09:52:17.209Z,20.31
2017-11-28T09:53:16.886Z,20.35
2017-11-28T09:54:16.918Z,20.33
2017-11-28T09:55:16.946Z,20.30
2017-11-28T09:56:16.980Z,20.35
2017-11-28T09:57:17.007Z,20.30
2017-11-28T09:58:17.040Z,20.42
2017-11-28T09:59:17.380Z,20.40
2017-11-28T10:00:17.125Z,20.41
2017-11-28T10:01:17.145Z,20.38
2017-11-28T10:02:17.162Z,20.42
2017-11-28T10:03:17.191Z,20.40
2017-11-28T10:04:17.233Z,20.42
2017-11-28T10:05:17.303Z,20.42
2017-11-28T10:06:17.634Z,20.46
2017-11-28T10:07:17.317Z,20.46
2017-11-28T10:08:17.396Z,20.44
2017-11-28T10:09:17.429Z,20.42
2017-11-28T10:10:17.416Z,20.48
2017-11-28T10:11:17.440Z,20.44
2017-11-28T10:12:17.829Z,20.46
2017-11-28T10:13:17.650Z,20.46
2017-11-28T10:14:17.532Z,20.51
2017-11-28T10:15:17.565Z,20.46
2017-11-28T10:16:17.593Z,20.41
2017-11-28T10:17:17.629Z,20.44
2017-11-28T10:18:18.027Z,20.44
2017-11-28T10:19:17.709Z,20.46
2017-11-28T10:20:17.743Z,20.60
2017-11-28T10:21:17.747Z,20.54
2017-11-28T10:22:17.793Z,20.58
2017-11-28T10:23:17.813Z,20.58
2017-11-28T10:24:18.190Z,20.63
2017-11-28T10:25:17.884Z,20.58
2017-11-28T10:26:17.913Z,20.57
2017-11-28T10:27:17.941Z,20.61
2017-11-28T10:28:17.996Z,20.58
2017-11-28T10:29:18.005Z,20.58
2017-11-28T10:30:18.049Z,20.60
2017-11-28T10:31:18.409Z,20.58
2017-11-28T10:32:18.086Z,20.61
2017-11-28T10:33:18.117Z,20.61
2017-11-28T10:34:18.152Z,20.61
2017-11-28T10:35:18.179Z,20.61
2017-11-28T10:36:18.222Z,20.69
2017-11-28T10:37:18.242Z,20.61
2017-11-28T10:38:18.625Z,20.58
2017-11-28T10:39:18.355Z,20.57
2017-11-28T10:40:18.334Z,20.66
2017-11-28T10:41:18.365Z,20.71
2017-11-28T10:42:18.399Z,20.72
2017-11-28T10:43:18.439Z,20.72
2017-11-28T10:44:18.457Z,20.71
2017-11-28T10:45:18.839Z,20.64
2017-11-28T10:46:18.521Z,20.61
2017-11-28T10:47:18.560Z,20.75
2017-11-28T10:48:18.581Z,20.63
2017-11-28T10:49:18.628Z,20.72
2017-11-28T10:50:18.646Z,20.63
2017-11-28T10:51:18.714Z,20.60
2017-11-28T10:52:19.069Z,20.61
2017-11-28T10:53:18.738Z,20.61
2017-11-28T10:54:18.769Z,20.69
2017-11-28T10:55:18.801Z,20.72
2017-11-28T10:56:18.829Z,20.71
2017-11-28T10:57:18.866Z,20.72
2017-11-28T10:58:18.893Z,20.79
2017-11-28T10:59:19.230Z,20.71
2017-11-28T11:00:18.957Z,20.72
2017-11-28T11:01:18.993Z,20.76
2017-11-28T11:02:19.051Z,20.78
2017-11-28T11:03:19.057Z,20.78
2017-11-28T11:04:19.110Z,20.72
2017-11-28T11:05:19.115Z,20.72
2017-11-28T11:06:19.500Z,20.76
2017-11-28T11:07:19.169Z,20.76
2017-11-28T11:08:19.225Z,20.69
2017-11-28T11:09:19.235Z,20.85
2017-11-28T11:10:19.271Z,20.79
2017-11-28T11:11:19.328Z,20.73
2017-11-28T11:12:19.330Z,20.72
2017-11-28T11:14:19.390Z,20.85
2017-11-28T11:15:19.423Z,20.75
2017-11-28T11:16:19.457Z,20.78
2017-11-28T11:17:19.491Z,20.81
2017-11-28T11:18:19.616Z,20.82
2017-11-28T11:19:19.897Z,20.78
2017-11-28T11:20:19.595Z,20.76
2017-11-28T11:21:19.611Z,20.79
2017-11-28T11:22:19.637Z,20.85
2017-11-28T11:23:19.668Z,20.85
2017-11-28T11:24:19.709Z,20.85
2017-11-28T11:25:19.732Z,20.79
2017-11-28T11:26:20.114Z,20.81
2017-11-28T11:27:19.792Z,20.85
2017-11-28T11:28:19.826Z,20.83
2017-11-28T11:29:19.872Z,20.79
2017-11-28T11:30:19.891Z,20.83
2017-11-28T11:31:19.918Z,20.82
2017-11-28T11:32:20.262Z,20.82
2017-11-28T11:33:19.994Z,20.82
2017-11-28T11:34:20.011Z,20.83
2017-11-28T11:35:20.050Z,20.81
2017-11-28T11:36:20.176Z,20.87
2017-11-28T11:37:20.104Z,20.82
2017-11-28T11:38:20.493Z,20.78
2017-11-28T11:39:20.168Z,20.76
2017-11-28T11:40:20.208Z,20.81
2017-11-28T11:41:20.315Z,20.81
2017-11-28T11:42:20.274Z,20.83
2017-11-28T11:43:20.297Z,20.79
2017-11-28T11:44:20.742Z,20.76
2017-11-28T11:45:20.368Z,20.81
2017-11-28T11:46:20.438Z,20.79
2017-11-28T11:47:20.413Z,20.78
2017-11-28T11:48:20.454Z,20.75
2017-11-28T11:49:20.483Z,20.79
2017-11-28T11:50:20.513Z,20.76
2017-11-28T11:51:20.947Z,20.78
2017-11-28T11:52:20.576Z,20.79
2017-11-28T11:53:20.607Z,20.78
2017-11-28T11:54:20.652Z,20.82
2017-11-28T11:55:20.665Z,20.75
2017-11-28T11:56:20.696Z,20.75
2017-11-28T11:57:20.727Z,20.82
2017-11-28T11:58:21.110Z,20.78
2017-11-28T11:59:20.800Z,20.75
2017-11-28T12:00:20.822Z,20.79
2017-11-28T12:01:20.853Z,20.75
2017-11-28T12:02:20.893Z,20.75
2017-11-28T12:03:20.916Z,20.79
2017-11-28T12:04:20.952Z,20.73
2017-11-28T12:05:21.326Z,20.79
2017-11-28T12:06:21.019Z,20.82
2017-11-28T12:07:21.078Z,20.81
2017-11-28T12:08:21.068Z,20.83
2017-11-28T12:09:21.110Z,20.78
2017-11-28T12:10:21.137Z,20.81
2017-11-28T12:11:21.160Z,20.83
2017-11-28T12:12:22.151Z,20.78
2017-11-28T12:13:21.224Z,20.76
2017-11-28T12:14:21.258Z,20.79
2017-11-28T12:15:21.310Z,20.83
2017-11-28T12:16:21.325Z,20.78
2017-11-28T12:17:21.348Z,20.78
2017-11-28T12:18:21.386Z,20.78
2017-11-28T12:19:21.804Z,20.81
2017-11-28T12:20:21.441Z,20.78
2017-11-28T12:21:21.476Z,20.76
2017-11-28T12:22:21.509Z,20.85
2017-11-28T12:23:21.537Z,20.83
2017-11-28T12:24:21.574Z,20.87
2017-11-28T12:25:21.601Z,20.81
2017-11-28T12:26:21.985Z,20.85
2017-11-28T12:27:21.748Z,20.81
2017-11-28T12:28:21.719Z,20.81
2017-11-28T12:29:21.728Z,20.81
2017-11-28T12:31:21.784Z,20.82
2017-11-28T12:32:21.815Z,20.90
2017-11-28T12:33:22.198Z,20.91
2017-11-28T12:34:21.881Z,20.90
2017-11-28T12:35:21.908Z,20.90
2017-11-28T12:36:21.990Z,20.83
2017-11-28T12:37:21.999Z,20.81
2017-11-28T12:38:22.004Z,20.87
2017-11-28T12:39:22.035Z,20.78
2017-11-28T12:40:22.416Z,20.85
2017-11-28T12:41:22.102Z,20.83
2017-11-28T12:42:22.131Z,20.81
2017-11-28T12:43:22.160Z,20.83
2017-11-28T12:44:22.431Z,20.75
2017-11-28T12:45:22.270Z,20.87
2017-11-28T12:46:22.256Z,20.76
2017-11-28T12:47:22.643Z,20.83
2017-11-28T12:48:22.328Z,20.83
2017-11-28T12:49:22.385Z,20.81
2017-11-28T12:50:22.385Z,20.83
2017-11-28T12:51:22.424Z,20.83
2017-11-28T12:52:22.443Z,20.81
2017-11-28T12:53:24.687Z,20.79
2017-11-28T12:54:22.861Z,20.85
2017-11-28T12:55:22.533Z,20.75
2017-11-28T12:56:22.560Z,20.83
2017-11-28T12:57:22.629Z,20.78
2017-11-28T12:58:22.650Z,20.83
2017-11-28T12:59:22.687Z,20.79
2017-11-28T13:00:22.748Z,20.85
2017-11-28T13:01:23.094Z,20.82
2017-11-28T13:02:22.756Z,20.85
2017-11-28T13:03:22.781Z,20.88
2017-11-28T13:04:22.809Z,20.88
2017-11-28T13:05:22.840Z,20.79